»·PEaware :: N618ER KSNA-KAVX

N618ER :: KSNA-KAVX

FLIGHT INFORMATION

Flight Status: Arrived
Operator: Privately registered:
United States
More flights under this callsign
Pilot: Ryan E. (25987)
Aircraft: PIPER PA-28 CHEROKEE ARCHER
(P28A)
More flights by this aircraft type
Origin: KSNA John Wayne-Orange Co
United States
Destination: KAVX Catalina
United States
More flights between these airports :: More routes between these airports
Route: +SLI V21 SXC
File this flight plan on PilotEdge
Remarks:
Altitude:
(Current/Filed)
4,000ft
Speed:
(Current/Filed)
100kts
Departed: 17-Jan-20 09:57 AM
Arrived: 17-Jan-20 10:21 AM
Distance/Time
Traveled:
32nm/0:24
Distance/Time
To Go:
Arrived

Flight Plot

Page will automatically refresh every two minutes.


Map Options




Map Legend


Flown Route
Filed Route
Departure Airport
Arrival Airport
Navaid (VOR, NDB)
Fix

Horizontal Profiles

Position Reports

Time Latitude Longitude Heading Altitude Ground
Speed
17-Jan-20 09:41 33.676721 -117.870558 115 59ft 0kts
17-Jan-20 09:42 33.676721 -117.870558 115 59ft 0kts
17-Jan-20 09:43 33.676721 -117.870558 115 59ft 0kts
17-Jan-20 09:44 33.676721 -117.870558 115 59ft 0kts
17-Jan-20 09:45 33.676721 -117.870558 115 59ft 0kts
17-Jan-20 09:46 33.676721 -117.870558 115 59ft 0kts
17-Jan-20 09:47 33.676721 -117.870558 115 59ft 0kts
17-Jan-20 09:48 33.676577 -117.870041 104 59ft 9kts
17-Jan-20 09:49 33.677511 -117.868686 212 59ft 0kts
17-Jan-20 09:50 33.677511 -117.868686 212 59ft 0kts
17-Jan-20 09:51 33.677511 -117.868686 212 59ft 0kts
17-Jan-20 09:52 33.677503 -117.868721 277 59ft 1kts
17-Jan-20 09:53 33.680198 -117.867645 26 59ft 16kts
17-Jan-20 09:54 33.681207 -117.866508 110 59ft 0kts
17-Jan-20 09:55 33.680683 -117.865772 192 59ft 0kts
17-Jan-20 09:56 33.668335 -117.875613 232 561ft 82kts
17-Jan-20 09:57 33.654747 -117.896951 232 1655ft 81kts
17-Jan-20 09:58 33.640255 -117.919860 228 2604ft 88kts
17-Jan-20 09:59 33.626170 -117.943912 234 3522ft 88kts
17-Jan-20 10:00 33.612238 -117.969530 236 3983ft 105kts
17-Jan-20 10:01 33.594999 -117.998552 242 3963ft 107kts
17-Jan-20 10:02 33.594846 -118.033959 265 3951ft 105kts
17-Jan-20 10:03 33.595377 -118.069196 271 3954ft 105kts
17-Jan-20 10:04 33.595716 -118.104310 271 3961ft 105kts
17-Jan-20 10:05 33.595994 -118.139577 271 3966ft 105kts
17-Jan-20 10:06 33.596230 -118.174871 271 3929ft 110kts
17-Jan-20 10:07 33.596670 -118.210992 271 3953ft 110kts
17-Jan-20 10:08 33.585947 -118.241276 206 3967ft 106kts
17-Jan-20 10:09 33.560197 -118.259299 210 4005ft 105kts
17-Jan-20 10:10 33.535604 -118.279045 223 4038ft 109kts
17-Jan-20 10:11 33.538952 -118.312868 291 4032ft 104kts
17-Jan-20 10:12 33.548850 -118.346233 292 4017ft 106kts
17-Jan-20 10:13 33.557272 -118.379752 259 3994ft 112kts
17-Jan-20 10:14 33.534063 -118.401347 224 3980ft 109kts
17-Jan-20 10:15 33.510741 -118.417345 165 3988ft 99kts
17-Jan-20 10:16 33.482075 -118.413091 174 3940ft 103kts
17-Jan-20 10:17 33.453272 -118.413002 178 3173ft 101kts
17-Jan-20 10:18 33.426417 -118.412337 149 2386ft 85kts
17-Jan-20 10:19 33.406928 -118.412441 241 1592ft 68kts
17-Jan-20 10:20 33.403486 -118.415941 64 1567ft 0kts
17-Jan-20 10:21 33.403486 -118.415941 64 1567ft 0kts
17-Jan-20 10:22 33.403486 -118.415940 64 1567ft 0kts
17-Jan-20 10:23 33.403486 -118.415940 64 1567ft 0kts
17-Jan-20 10:24 33.403486 -118.415940 64 1567ft 0kts
17-Jan-20 10:25 33.403486 -118.415940 64 1567ft 0kts
17-Jan-20 10:26 33.403486 -118.415940 64 1567ft 0kts
17-Jan-20 10:27 33.403486 -118.415940 64 1567ft 0kts
17-Jan-20 10:28 33.403486 -118.415940 64 1567ft 0kts
17-Jan-20 10:29 33.403486 -118.415940 64 1567ft 0kts
17-Jan-20 10:30 33.403486 -118.415940 64 1567ft 0kts
17-Jan-20 10:31 33.403486 -118.415940 64 1567ft 0kts
17-Jan-20 10:32 33.403486 -118.415940 64 1567ft 0kts
17-Jan-20 10:33 33.403486 -118.415940 64 1567ft 0kts
17-Jan-20 10:34 33.403486 -118.415940 64 1567ft 0kts

Navigation Log

Ident Type
Flight plan parsing failed, navigation log unavailable